Sumterville, Florida
Current Conditions -  °F | °C
As of 11:53 AM on Thursday 23 Oct 2014 (Local Time) from KLEE Reporting Station
Clear Clear  
Wind Chill: 77°   Ceiling: Unl
Heat Index: 78°   Visibility: 10mi
Dew Point: 55°   Wind: 13mph
Humidity: 46%   Direction: 60°ENE
Pressure: 30.04"   Gusts: NA
Location:  28.75°N, 82.06°W
Report Text: KLEE 231553Z 06011KT 10SM CLR 25/13 A3004 RMK AO2 SLP171 T02500128
Loading
Personal Weather Stations






























Interactive Weather Map
Tropical Storm Tracking
New forecast layout! Learn more

10-Day Weather Forecast

Advertisements
Track Severe Weather on mobile